Muskoka Falls, Canada
Current Conditions -  °F | °C
As of 5:00 AM on Saturday 22 Nov 2014 (Local Time) from CYQA Reporting Station
Broken Clouds Broken Clouds  
Wind Chill: 11°   Ceiling: 18000
Heat Index: 21°   Visibility: 9mi
Dew Point: 14°   Wind: 9mph
Humidity: 74%   Direction: 170°S
Pressure: 30.1"   Gusts: NA
Location:  45°N, 79.3°W
Report Text: CYQA 221000Z AUTO 17008KT 9SM BKN180 BKN200 BKN240 M06/M10 A3010 RMK SLP210
Loading
Personal Weather Stations






























Interactive Weather Map New forecast layout! Learn more

10-Day Weather Forecast

Advertisements
Track Severe Weather on mobile